Time;durP1;ratioP1;P1;durP2;ratioP2;P2;SDS_P1;SDS_P2;PMS_P1;PMS_P2;Temp;Humidity;BMP_temperature;BMP_pressure;BME280_temperature;BME280_humidity;BME280_pressure;Samples;Min_cycle;Max_cycle;Signal;HPM_P1;HPM_P2
2022/03/22 00:01:43;;;;;;;20.35;12.32;;;7.70;99.90;;;;;;7287686;32;20245;-62
2022/03/22 00:05:45;;;;;;;19.60;11.98;;;7.80;99.90;;;;;;7286116;32;20599;-60
2022/03/22 00:09:47;;;;;;;18.05;10.90;;;7.90;99.90;;;;;;7288929;32;20123;-60
2022/03/22 00:13:49;;;;;;;20.08;11.68;;;8.00;99.90;;;;;;7289641;32;20445;-59
2022/03/22 00:17:51;;;;;;;18.02;11.73;;;8.10;99.90;;;;;;7277007;32;20119;-60
2022/03/22 00:21:52;;;;;;;17.23;11.50;;;8.30;99.90;;;;;;7290057;32;20374;-59
2022/03/22 00:25:54;;;;;;;22.40;12.18;;;8.40;99.90;;;;;;7290155;32;20493;-60
2022/03/22 00:29:58;;;;;;;18.25;11.15;;;8.50;99.90;;;;;;7291439;32;20106;-60
2022/03/22 00:34:00;;;;;;;18.65;11.12;;;8.60;99.90;;;;;;7287766;32;20301;-59
2022/03/22 00:38:04;;;;;;;16.70;11.23;;;8.70;99.90;;;;;;7287929;32;20108;-59
2022/03/22 00:42:05;;;;;;;20.50;11.63;;;8.70;99.90;;;;;;7290771;32;20140;-60
2022/03/22 00:46:07;;;;;;;18.08;12.45;;;8.70;99.90;;;;;;7293514;32;20190;-61
2022/03/22 00:50:09;;;;;;;20.35;11.60;;;8.80;99.90;;;;;;7294813;32;20238;-59
2022/03/22 00:54:11;;;;;;;18.77;11.52;;;8.70;99.90;;;;;;7294533;32;20468;-61
2022/03/22 00:58:13;;;;;;;19.12;11.68;;;8.50;99.90;;;;;;7292564;32;20202;-60
2022/03/22 01:02:14;;;;;;;15.52;10.70;;;8.50;99.90;;;;;;7287788;32;20130;-59
2022/03/22 01:06:17;;;;;;;18.75;11.40;;;8.50;99.90;;;;;;7289993;32;20132;-59
2022/03/22 01:10:21;;;;;;;22.23;12.23;;;8.60;99.90;;;;;;7291990;32;20296;-60
2022/03/22 01:14:28;;;;;;;20.25;11.35;;;8.60;99.90;;;;;;7295251;32;20199;-59
2022/03/22 01:18:30;;;;;;;20.48;12.05;;;8.50;99.90;;;;;;7295407;32;20119;-60
2022/03/22 01:22:32;;;;;;;19.55;12.07;;;8.60;99.90;;;;;;7294707;32;20385;-59
2022/03/22 01:26:34;;;;;;;18.55;11.52;;;8.60;99.90;;;;;;7295003;32;20111;-59
2022/03/22 01:30:36;;;;;;;19.42;12.30;;;8.70;99.90;;;;;;7293402;32;20464;-59
2022/03/22 01:34:39;;;;;;;19.05;11.77;;;8.70;99.90;;;;;;7294219;32;20598;-61
2022/03/22 01:38:41;;;;;;;17.40;11.55;;;8.80;99.90;;;;;;7293134;32;20158;-59
2022/03/22 01:42:43;;;;;;;17.85;11.35;;;8.90;99.90;;;;;;7295507;32;20191;-61
2022/03/22 01:46:46;;;;;;;24.63;11.52;;;8.90;99.90;;;;;;7293851;32;20560;-59
2022/03/22 01:50:47;;;;;;;20.62;11.00;;;8.90;99.90;;;;;;7292863;32;20142;-59
2022/03/22 01:54:51;;;;;;;18.65;11.73;;;8.90;99.90;;;;;;7292334;32;20126;-59
2022/03/22 01:58:55;;;;;;;22.08;11.20;;;8.90;99.90;;;;;;7294499;32;20265;-59
2022/03/22 02:07:18;;;;;;;22.40;12.02;;;9.00;99.90;;;;;;7288646;32;20566;-60
2022/03/22 02:11:19;;;;;;;21.35;10.80;;;8.90;99.90;;;;;;7288713;32;20130;-59
2022/03/22 02:15:21;;;;;;;19.20;11.07;;;9.00;99.90;;;;;;7292679;32;20585;-59
2022/03/22 02:19:23;;;;;;;17.62;10.73;;;9.00;99.90;;;;;;7294149;32;20236;-60
2022/03/22 02:23:48;;;;;;;18.60;11.45;;;8.90;99.90;;;;;;7292520;32;20115;-59
2022/03/22 02:27:53;;;;;;;14.98;10.43;;;9.00;99.90;;;;;;7290899;32;20135;-59
2022/03/22 02:31:55;;;;;;;17.58;11.20;;;9.00;99.90;;;;;;7294390;32;20107;-58
2022/03/22 02:35:56;;;;;;;18.17;10.63;;;8.90;99.90;;;;;;7294505;32;20217;-58
2022/03/22 02:39:58;;;;;;;16.73;10.75;;;8.80;99.90;;;;;;7293405;32;20532;-60
2022/03/22 02:44:00;;;;;;;14.45;10.07;;;8.80;99.90;;;;;;7291486;32;20714;-59
2022/03/22 02:48:02;;;;;;;17.58;10.50;;;8.80;99.90;;;;;;7294057;32;20145;-59
2022/03/22 02:52:04;;;;;;;18.33;11.40;;;8.70;99.90;;;;;;7290779;32;20483;-59
2022/03/22 02:56:07;;;;;;;15.77;10.23;;;8.60;99.90;;;;;;7291039;32;20131;-59
2022/03/22 03:00:11;;;;;;;16.10;10.18;;;8.60;99.90;;;;;;7290262;32;20141;-59
2022/03/22 03:04:13;;;;;;;18.52;10.23;;;8.40;99.90;;;;;;7285570;32;20127;-59
2022/03/22 03:08:15;;;;;;;15.52;9.55;;;8.30;99.90;;;;;;7283077;32;20507;-59
2022/03/22 03:12:17;;;;;;;20.25;11.02;;;8.20;99.90;;;;;;7290500;32;20126;-59
2022/03/22 03:16:19;;;;;;;14.65;10.65;;;8.10;99.90;;;;;;7292375;32;20116;-59
2022/03/22 03:20:21;;;;;;;13.82;9.68;;;8.00;99.90;;;;;;7293076;32;20602;-59
2022/03/22 03:24:22;;;;;;;16.83;9.55;;;8.00;99.90;;;;;;7293012;32;20222;-58
2022/03/22 03:28:24;;;;;;;15.48;9.68;;;8.00;99.90;;;;;;7292052;32;20348;-59
2022/03/22 03:32:25;;;;;;;16.67;10.52;;;8.00;99.90;;;;;;7289964;32;20119;-60
2022/03/22 03:36:28;;;;;;;14.82;9.60;;;8.00;99.90;;;;;;7289670;32;20145;-60
2022/03/22 03:41:53;;;;;;;15.80;9.27;;;7.90;99.90;;;;;;7285650;32;20130;-59
2022/03/22 03:49:11;;;;;;;15.57;9.55;;;7.50;99.90;;;;;;7288595;32;20111;-58
2022/03/22 03:53:12;;;;;;;15.48;9.88;;;7.30;99.90;;;;;;7290404;32;20198;-59
2022/03/22 03:57:14;;;;;;;16.77;9.60;;;7.00;99.90;;;;;;7285024;32;20116;-59
2022/03/22 04:01:16;;;;;;;20.23;10.40;;;6.80;99.90;;;;;;7284502;32;20353;-59
2022/03/22 04:05:18;;;;;;;14.63;10.00;;;6.50;99.90;;;;;;7290060;32;20817;-60
2022/03/22 04:09:20;;;;;;;17.33;10.85;;;6.40;99.90;;;;;;7291671;32;20249;-59
2022/03/22 04:13:21;;;;;;;21.62;10.85;;;6.20;99.90;;;;;;7291364;32;20150;-58
2022/03/22 04:17:23;;;;;;;17.77;11.10;;;6.00;99.90;;;;;;7290100;32;20195;-60
2022/03/22 04:21:24;;;;;;;17.85;10.88;;;5.80;99.90;;;;;;7296922;32;20134;-59
2022/03/22 04:25:26;;;;;;;17.12;10.43;;;5.60;99.90;;;;;;7298720;32;20593;-58
2022/03/22 04:33:49;;;;;;;15.38;10.50;;;5.30;99.90;;;;;;7294728;32;20142;-59
2022/03/22 04:37:52;;;;;;;16.95;10.35;;;5.30;99.90;;;;;;7298481;32;20627;-59
2022/03/22 04:41:56;;;;;;;19.00;11.55;;;5.20;99.90;;;;;;7297054;32;20116;-59
2022/03/22 04:45:58;;;;;;;15.65;11.00;;;5.10;99.90;;;;;;7296911;32;20126;-59
2022/03/22 04:50:00;;;;;;;17.77;10.68;;;5.00;99.90;;;;;;7299757;32;20120;-59
2022/03/22 04:58:22;;;;;;;16.62;11.12;;;4.80;99.90;;;;;;7299998;32;20111;-59
2022/03/22 05:02:24;;;;;;;18.10;11.75;;;4.60;99.90;;;;;;7300280;32;20112;-60
2022/03/22 05:06:26;;;;;;;17.35;10.55;;;4.50;99.90;;;;;;7290025;32;20602;-58
2022/03/22 05:10:27;;;;;;;20.75;11.60;;;4.40;99.90;;;;;;7283325;32;20169;-59
2022/03/22 05:14:29;;;;;;;17.12;10.98;;;4.40;99.90;;;;;;7299824;32;20111;-60
2022/03/22 05:18:31;;;;;;;16.95;11.70;;;4.30;99.90;;;;;;7293703;32;20108;-58
2022/03/22 05:22:35;;;;;;;18.92;11.63;;;4.10;99.90;;;;;;7298796;32;20245;-59
2022/03/22 05:26:37;;;;;;;17.95;11.43;;;4.10;99.90;;;;;;7290121;32;20126;-58
2022/03/22 05:30:38;;;;;;;16.30;11.07;;;4.10;99.90;;;;;;7288923;32;20111;-59
2022/03/22 05:34:40;;;;;;;18.73;10.75;;;4.10;99.90;;;;;;7286233;32;20722;-59
2022/03/22 05:38:42;;;;;;;16.17;10.48;;;4.00;99.90;;;;;;7291142;32;20209;-59
2022/03/22 05:42:44;;;;;;;17.85;11.55;;;4.00;99.90;;;;;;7298090;32;20115;-59
2022/03/22 05:46:45;;;;;;;21.08;11.30;;;4.00;99.90;;;;;;7295593;32;20447;-60
2022/03/22 05:50:49;;;;;;;18.80;11.35;;;4.00;99.90;;;;;;7294753;32;20253;-59
2022/03/22 05:54:50;;;;;;;15.77;10.38;;;4.10;99.90;;;;;;7293071;32;20556;-61
2022/03/22 05:58:52;;;;;;;26.40;11.35;;;4.10;99.90;;;;;;7291798;32;20131;-60
2022/03/22 06:02:54;;;;;;;18.52;11.18;;;4.10;99.90;;;;;;7282998;32;20414;-61
2022/03/22 06:06:55;;;;;;;16.02;10.32;;;4.20;99.90;;;;;;7285480;32;20720;-61
2022/03/22 06:10:57;;;;;;;19.87;11.48;;;4.20;99.90;;;;;;7287983;32;20870;-62
2022/03/22 06:15:14;;;;;;;19.62;10.82;;;4.20;99.90;;;;;;7285430;32;20112;-61
2022/03/22 06:19:16;;;;;;;18.10;10.27;;;4.30;99.90;;;;;;7282410;32;20187;-62
2022/03/22 06:23:19;;;;;;;23.25;15.50;;;4.40;99.90;;;;;;7287846;32;20190;-60
2022/03/22 06:27:21;;;;;;;22.83;11.80;;;4.60;99.90;;;;;;7292801;32;20198;-60
2022/03/22 06:31:23;;;;;;;17.30;10.77;;;4.70;99.90;;;;;;7286180;32;20242;-62
2022/03/22 06:35:32;;;;;;;15.55;10.02;;;4.80;99.90;;;;;;7287279;32;20111;-60
2022/03/22 06:39:34;;;;;;;16.42;10.32;;;5.00;99.90;;;;;;7287555;32;20324;-59
2022/03/22 06:43:36;;;;;;;15.10;11.52;;;5.10;99.90;;;;;;7290147;32;20138;-60
2022/03/22 06:47:39;;;;;;;15.80;10.68;;;5.30;99.90;;;;;;7286821;32;20519;-60
2022/03/22 06:51:41;;;;;;;15.25;10.18;;;5.50;99.90;;;;;;7289277;32;20590;-61
2022/03/22 06:55:43;;;;;;;16.58;10.23;;;5.70;99.90;;;;;;7289038;32;20108;-61
2022/03/22 06:59:45;;;;;;;15.13;10.30;;;6.00;99.90;;;;;;7290767;32;20570;-59
2022/03/22 07:03:47;;;;;;;15.10;9.02;;;6.30;99.90;;;;;;7291416;32;20158;-61
2022/03/22 07:07:48;;;;;;;16.62;9.68;;;6.70;99.90;;;;;;7290187;32;20571;-61
2022/03/22 07:11:50;;;;;;;15.35;8.80;;;6.90;99.90;;;;;;7289048;32;20139;-60
2022/03/22 07:15:52;;;;;;;13.62;8.73;;;7.20;99.90;;;;;;7290205;32;20735;-60
2022/03/22 07:19:54;;;;;;;14.27;8.60;;;7.50;99.90;;;;;;7289188;32;20225;-60
2022/03/22 07:23:55;;;;;;;14.50;9.00;;;7.90;99.90;;;;;;7281682;32;20145;-59
2022/03/22 07:27:57;;;;;;;14.95;8.48;;;8.50;99.90;;;;;;7287027;32;20229;-62
2022/03/22 07:31:59;;;;;;;12.52;9.05;;;8.70;99.90;;;;;;7286902;32;20217;-60
2022/03/22 07:36:01;;;;;;;15.20;9.45;;;9.00;99.90;;;;;;7278509;32;20130;-61
2022/03/22 07:40:06;;;;;;;14.80;7.75;;;9.60;97.10;;;;;;7288616;32;20253;-62
2022/03/22 07:44:08;;;;;;;11.75;7.50;;;10.00;91.90;;;;;;7283011;32;20634;-61
2022/03/22 07:48:10;;;;;;;13.70;8.48;;;10.20;95.40;;;;;;7285292;32;20199;-62
2022/03/22 07:56:32;;;;;;;12.57;8.68;;;10.60;87.40;;;;;;7289183;32;20134;-62
2022/03/22 08:00:37;;;;;;;14.87;8.50;;;10.90;84.00;;;;;;7283288;32;20138;-63
2022/03/22 08:04:39;;;;;;;18.15;8.80;;;11.30;80.40;;;;;;7284088;32;21536;-61
2022/03/22 08:08:44;;;;;;;12.02;8.30;;;11.60;74.30;;;;;;7285426;32;20676;-62
2022/03/22 08:12:46;;;;;;;11.23;7.93;;;11.80;80.00;;;;;;7290221;32;20103;-61
2022/03/22 08:16:47;;;;;;;10.60;8.27;;;11.90;76.30;;;;;;7287007;32;20133;-62
2022/03/22 08:20:49;;;;;;;11.57;8.13;;;12.10;68.30;;;;;;7273822;32;20262;-61
2022/03/22 08:24:52;;;;;;;12.40;7.90;;;12.40;68.30;;;;;;7277465;32;20439;-60
2022/03/22 08:28:55;;;;;;;9.40;7.53;;;12.80;68.20;;;;;;7264662;32;20651;-60
2022/03/22 08:32:59;;;;;;;13.50;8.90;;;13.50;64.00;;;;;;7275502;32;20514;-62
2022/03/22 08:37:02;;;;;;;12.15;8.82;;;14.50;61.20;;;;;;7275217;32;20207;-61
2022/03/22 08:41:04;;;;;;;12.80;8.27;;;15.70;59.70;;;;;;7279310;32;20566;-62
2022/03/22 08:45:06;;;;;;;14.18;8.80;;;16.80;62.10;;;;;;7277179;32;20254;-63
2022/03/22 08:49:40;;;;;;;12.32;9.02;;;17.30;56.00;;;;;;7285568;26;20322;-80
2022/03/22 08:53:42;;;;;;;10.15;8.32;;;17.80;52.80;;;;;;7270042;26;20531;-64
2022/03/22 08:57:47;;;;;;;14.45;9.00;;;18.20;60.10;;;;;;7251529;32;20246;-62
2022/03/22 09:01:49;;;;;;;12.77;9.00;;;18.70;51.10;;;;;;7231141;32;20199;-62
2022/03/22 09:06:10;;;;;;;11.90;7.95;;;19.30;49.30;;;;;;7227941;32;20203;-61
2022/03/22 09:10:14;;;;;;;10.63;9.05;;;19.40;44.80;;;;;;7229527;32;20422;-63
2022/03/22 09:14:15;;;;;;;12.63;8.85;;;18.50;46.30;;;;;;7237418;32;20116;-61
2022/03/22 09:18:17;;;;;;;11.48;9.15;;;19.00;44.40;;;;;;7239317;32;20112;-62
2022/03/22 09:22:19;;;;;;;12.68;8.63;;;19.00;45.90;;;;;;7240047;32;20129;-61
2022/03/22 09:26:21;;;;;;;10.55;8.27;;;19.40;44.30;;;;;;7242764;32;20108;-61
2022/03/22 09:30:24;;;;;;;12.13;9.13;;;20.10;48.40;;;;;;7239912;32;20316;-62
2022/03/22 09:34:25;;;;;;;13.18;8.25;;;20.20;46.00;;;;;;7226799;32;20111;-63
2022/03/22 09:38:27;;;;;;;10.65;7.95;;;20.60;43.00;;;;;;7235352;32;20732;-62
2022/03/22 09:42:30;;;;;;;12.43;8.02;;;21.00;39.60;;;;;;7234758;32;21208;-62
2022/03/22 09:46:32;;;;;;;14.15;8.55;;;20.80;39.40;;;;;;7234482;32;20250;-61
2022/03/22 09:54:54;;;;;;;11.50;8.68;;;22.20;40.00;;;;;;7237197;32;20180;-63
2022/03/22 09:59:00;;;;;;;11.50;8.18;;;22.60;37.00;;;;;;7232692;32;20188;-63
2022/03/22 10:03:02;;;;;;;11.55;8.38;;;23.60;39.50;;;;;;7238993;32;20112;-61
2022/03/22 10:07:06;;;;;;;11.20;8.48;;;23.40;34.60;;;;;;7242995;32;20230;-61
2022/03/22 10:11:08;;;;;;;12.48;7.93;;;23.90;35.80;;;;;;7244295;32;20314;-61
2022/03/22 10:15:11;;;;;;;10.90;7.78;;;24.70;36.10;;;;;;7243062;32;20113;-64
2022/03/22 10:19:19;;;;;;;12.35;7.68;;;24.50;37.10;;;;;;7235271;32;20257;-61
2022/03/22 10:23:20;;;;;;;10.63;8.27;;;25.70;37.60;;;;;;7237863;32;20112;-62
2022/03/22 10:27:31;;;;;;;9.93;7.85;;;25.40;32.00;;;;;;7229392;32;20241;-62
2022/03/22 10:31:53;;;;;;;9.27;7.75;;;25.90;32.40;;;;;;7242604;32;20591;-62
2022/03/22 10:35:55;;;;;;;13.25;8.27;;;24.90;34.90;;;;;;7225612;32;20211;-61
2022/03/22 10:39:57;;;;;;;13.30;8.45;;;25.70;35.40;;;;;;7230651;32;20355;-62
2022/03/22 10:44:08;;;;;;;10.95;7.62;;;25.80;34.60;;;;;;7235035;32;20191;-57
2022/03/22 10:48:14;;;;;;;10.10;7.22;;;27.20;32.50;;;;;;7234102;32;20210;-59
2022/03/22 10:52:19;;;;;;;;;;;26.90;33.70;;;;;;7233001;32;20469;-63
2022/03/22 10:56:21;;;;;;;13.27;7.82;;;27.50;30.80;;;;;;7231469;32;20128;-59
2022/03/22 11:00:25;;;;;;;12.77;8.15;;;26.90;32.00;;;;;;7233939;32;20274;-62
2022/03/22 11:04:27;;;;;;;11.00;8.35;;;25.40;30.90;;;;;;7229093;32;20222;-62
2022/03/22 11:08:37;;;;;;;11.45;9.07;;;25.40;33.20;;;;;;7238678;32;20199;-61
2022/03/22 11:12:39;;;;;;;13.98;8.65;;;25.10;30.50;;;;;;7233575;32;20315;-63
2022/03/22 11:16:42;;;;;;;13.45;8.18;;;24.80;32.70;;;;;;7234679;32;20327;-63
2022/03/22 11:20:59;;;;;;;11.57;7.90;;;24.70;32.80;;;;;;7237320;32;20187;-62
2022/03/22 11:25:13;;;;;;;10.88;8.50;;;25.10;34.60;;;;;;7230520;32;20266;-62
2022/03/22 11:29:19;;;;;;;18.20;9.23;;;23.80;34.20;;;;;;7233845;32;20135;-62
2022/03/22 11:37:53;;;;;;;10.32;8.98;;;22.90;36.70;;;;;;7243992;32;20784;-60
2022/03/22 11:46:15;;;;;;;13.55;9.43;;;23.00;36.80;;;;;;7223817;32;20120;-62
2022/03/22 11:50:19;;;;;;;14.63;9.57;;;21.50;36.90;;;;;;7237719;32;20243;-58
2022/03/22 11:54:23;;;;;;;14.68;9.25;;;21.60;38.10;;;;;;7243412;32;20539;-59
2022/03/22 11:58:28;;;;;;;13.02;9.43;;;21.80;38.40;;;;;;7240588;32;20108;-62
2022/03/22 12:02:54;;;;;;;19.17;9.30;;;21.50;38.70;;;;;;7238478;32;20192;-62
2022/03/22 12:06:56;;;;;;;13.62;8.13;;;21.60;39.80;;;;;;7237860;32;20264;-62
2022/03/22 12:10:59;;;;;;;17.62;8.48;;;21.90;38.40;;;;;;7236321;32;20489;-63
2022/03/22 12:15:04;;;;;;;14.70;8.35;;;22.30;39.80;;;;;;7236295;32;20247;-63
2022/03/22 12:19:06;;;;;;;17.83;7.93;;;22.10;37.50;;;;;;7233530;32;20394;-63
2022/03/22 12:23:08;;;;;;;12.20;7.40;;;22.00;38.70;;;;;;7241948;32;20881;-64
2022/03/22 12:27:11;;;;;;;12.73;6.97;;;22.70;40.60;;;;;;7237324;32;20176;-62
2022/03/22 12:31:13;;;;;;;16.20;6.75;;;22.50;38.40;;;;;;7224250;32;20816;-62
2022/03/22 12:35:19;;;;;;;9.68;5.70;;;21.50;38.50;;;;;;7229650;32;20326;-63
2022/03/22 12:39:21;;;;;;;9.43;5.28;;;20.90;39.80;;;;;;7232894;32;20191;-63
2022/03/22 12:43:23;;;;;;;15.95;5.90;;;20.40;40.60;;;;;;7233667;32;20917;-63
2022/03/22 12:47:25;;;;;;;11.75;5.40;;;20.10;40.00;;;;;;7233342;32;20274;-62
2022/03/22 12:51:27;;;;;;;10.77;5.53;;;20.00;40.60;;;;;;7233097;32;20195;-61
2022/03/22 12:55:28;;;;;;;14.77;5.68;;;19.80;41.80;;;;;;7233874;32;20139;-61
2022/03/22 12:59:30;;;;;;;11.95;6.22;;;19.60;41.60;;;;;;7239391;32;20253;-56
2022/03/22 13:03:32;;;;;;;14.87;6.40;;;19.20;40.40;;;;;;7239153;32;20319;-56
2022/03/22 13:07:35;;;;;;;12.75;5.37;;;19.40;41.50;;;;;;7234265;32;20235;-56
2022/03/22 13:11:36;;;;;;;14.48;6.22;;;19.50;41.00;;;;;;7237711;32;20247;-56
2022/03/22 13:15:46;;;;;;;14.15;5.85;;;19.50;39.10;;;;;;7241394;32;20223;-56
2022/03/22 13:19:48;;;;;;;12.25;5.57;;;19.70;39.10;;;;;;7233513;32;20233;-56
2022/03/22 13:24:11;;;;;;;11.50;5.20;;;19.90;39.20;;;;;;7233947;32;20457;-56
2022/03/22 13:28:16;;;;;;;12.57;6.37;;;20.10;39.30;;;;;;7236198;32;20263;-59
2022/03/22 13:32:28;;;;;;;12.27;6.68;;;20.20;39.20;;;;;;7234364;32;20203;-60
2022/03/22 13:36:30;;;;;;;10.93;5.22;;;20.70;38.80;;;;;;7233018;32;20155;-63
2022/03/22 13:40:42;;;;;;;11.02;5.95;;;21.20;37.50;;;;;;7233353;32;20233;-59
2022/03/22 13:44:49;;;;;;;16.20;5.97;;;21.10;36.30;;;;;;7237964;32;20261;-59
2022/03/22 13:48:53;;;;;;;13.68;6.93;;;21.20;36.20;;;;;;7234860;32;20203;-62
2022/03/22 13:53:06;;;;;;;13.73;6.15;;;21.40;35.80;;;;;;7229058;32;20207;-62
2022/03/22 13:57:08;;;;;;;11.85;5.97;;;21.10;36.00;;;;;;7241374;32;20325;-58
2022/03/22 14:01:11;;;;;;;11.70;6.15;;;21.00;36.50;;;;;;7237110;32;20204;-58
2022/03/22 14:05:14;;;;;;;11.82;6.37;;;20.80;38.00;;;;;;7237841;32;20539;-59
2022/03/22 14:09:18;;;;;;;14.20;6.47;;;21.00;37.50;;;;;;7235720;32;20223;-63
2022/03/22 14:13:22;;;;;;;15.93;6.55;;;20.90;37.90;;;;;;7233522;32;20262;-62
2022/03/22 14:17:25;;;;;;;12.73;6.37;;;20.70;38.90;;;;;;7234650;32;20254;-61
2022/03/22 14:21:27;;;;;;;11.18;5.97;;;20.70;36.30;;;;;;7233416;32;20187;-61
2022/03/22 14:25:34;;;;;;;9.90;6.57;;;20.90;36.50;;;;;;7225535;32;20225;-62
2022/03/22 14:29:35;;;;;;;13.80;7.05;;;21.40;35.70;;;;;;7235319;32;20243;-62
2022/03/22 14:33:42;;;;;;;11.75;7.00;;;21.20;34.70;;;;;;7237366;32;20314;-63
2022/03/22 14:37:43;;;;;;;12.93;7.60;;;21.40;35.70;;;;;;7236012;32;20235;-62
2022/03/22 14:41:45;;;;;;;17.70;8.20;;;21.60;35.50;;;;;;7238904;32;20191;-61
2022/03/22 14:45:50;;;;;;;11.77;7.72;;;21.60;35.30;;;;;;7231895;32;20196;-61
2022/03/22 14:49:51;;;;;;;15.85;7.40;;;21.90;35.70;;;;;;7229777;32;20212;-61
2022/03/22 14:54:05;;;;;;;12.93;8.10;;;21.90;36.30;;;;;;7229525;32;20389;-62
2022/03/22 15:02:28;;;;;;;12.60;7.85;;;20.90;36.30;;;;;;7225617;32;20180;-60
2022/03/22 15:06:31;;;;;;;13.50;8.18;;;19.90;38.30;;;;;;7238838;32;44816;-61
2022/03/22 15:10:33;;;;;;;10.70;7.57;;;19.70;38.20;;;;;;7243208;32;20449;-61
2022/03/22 15:14:35;;;;;;;16.92;8.10;;;19.60;39.30;;;;;;7243760;32;20468;-61
2022/03/22 15:18:38;;;;;;;14.50;7.75;;;19.10;40.20;;;;;;7236693;32;21123;-62
2022/03/22 15:22:40;;;;;;;13.45;7.10;;;18.80;40.10;;;;;;7239866;32;20151;-60
2022/03/22 15:26:42;;;;;;;13.68;7.75;;;18.60;41.80;;;;;;7240163;32;20106;-61
2022/03/22 15:30:44;;;;;;;10.65;7.05;;;18.60;42.30;;;;;;7242847;32;20877;-60
2022/03/22 15:34:46;;;;;;;18.25;8.50;;;18.40;43.20;;;;;;7242392;32;20120;-60
2022/03/22 15:38:48;;;;;;;15.23;8.00;;;18.20;41.30;;;;;;7244941;32;20108;-60
2022/03/22 15:42:49;;;;;;;14.68;7.97;;;18.10;43.00;;;;;;7253496;32;20552;-62
2022/03/22 15:46:51;;;;;;;18.87;7.03;;;18.00;42.70;;;;;;7244396;32;20139;-61
2022/03/22 15:50:53;;;;;;;13.85;7.50;;;17.90;43.00;;;;;;7232229;32;20239;-62
2022/03/22 15:54:56;;;;;;;14.52;8.13;;;17.90;43.80;;;;;;7249704;32;20124;-62
2022/03/22 15:59:01;;;;;;;15.80;8.30;;;18.00;43.10;;;;;;7245691;32;20494;-62
2022/03/22 16:03:04;;;;;;;17.30;8.30;;;17.90;42.60;;;;;;7244704;32;20135;-61
2022/03/22 16:07:06;;;;;;;18.08;7.80;;;17.80;42.40;;;;;;7246708;32;20483;-60
2022/03/22 16:11:07;;;;;;;12.52;8.15;;;17.80;43.90;;;;;;7245875;32;20113;-62
2022/03/22 16:15:10;;;;;;;19.65;8.73;;;17.80;44.10;;;;;;7245068;32;20127;-62
2022/03/22 16:19:12;;;;;;;16.62;8.60;;;17.70;44.10;;;;;;7246026;32;20120;-61
2022/03/22 16:23:15;;;;;;;16.30;8.90;;;17.60;45.00;;;;;;7241720;32;20646;-62
2022/03/22 16:27:17;;;;;;;14.80;8.32;;;17.50;45.20;;;;;;7246321;32;20127;-61
2022/03/22 16:31:29;;;;;;;15.13;9.13;;;17.30;45.40;;;;;;7245610;32;20159;-61
2022/03/22 16:39:53;;;;;;;16.40;9.68;;;17.30;46.30;;;;;;7232018;32;20140;-62
2022/03/22 16:43:55;;;;;;;20.55;8.93;;;17.10;47.20;;;;;;7245638;32;20139;-61
2022/03/22 16:47:56;;;;;;;18.77;10.35;;;17.00;47.30;;;;;;7244982;32;20117;-61
2022/03/22 16:51:59;;;;;;;22.50;9.80;;;16.90;47.40;;;;;;7246917;32;20200;-61
2022/03/22 16:56:04;;;;;;;20.02;9.80;;;16.90;47.00;;;;;;7246210;32;20783;-63
2022/03/22 17:00:07;;;;;;;14.43;9.38;;;16.70;47.20;;;;;;7230846;32;20354;-62
2022/03/22 17:04:09;;;;;;;17.40;9.98;;;16.50;48.50;;;;;;7235768;32;20525;-61
2022/03/22 17:08:11;;;;;;;17.60;10.07;;;16.40;48.40;;;;;;7240415;32;20425;-61
2022/03/22 17:12:13;;;;;;;17.05;9.48;;;16.30;48.00;;;;;;7242748;32;20139;-60
2022/03/22 17:16:15;;;;;;;22.08;9.13;;;16.10;48.60;;;;;;7244400;32;20147;-60
2022/03/22 17:20:17;;;;;;;14.57;9.02;;;16.00;48.00;;;;;;7240940;32;20722;-60
2022/03/22 17:24:18;;;;;;;13.27;8.77;;;15.90;48.00;;;;;;7239402;32;20135;-62
2022/03/22 17:28:20;;;;;;;17.33;8.27;;;15.90;47.00;;;;;;7247013;32;20104;-60
2022/03/22 17:32:24;;;;;;;11.60;7.18;;;15.70;48.20;;;;;;7247149;32;20108;-62
2022/03/22 17:36:27;;;;;;;17.00;8.00;;;15.50;48.10;;;;;;7242670;32;20135;-61
2022/03/22 17:40:29;;;;;;;12.73;7.37;;;15.20;48.30;;;;;;7245097;32;20116;-61
2022/03/22 17:44:31;;;;;;;9.23;6.95;;;15.20;48.10;;;;;;7244265;32;20128;-60
2022/03/22 17:48:33;;;;;;;16.98;7.30;;;15.00;48.10;;;;;;7246242;32;20787;-61
2022/03/22 17:52:36;;;;;;;13.35;6.72;;;14.90;48.50;;;;;;7241850;32;20164;-60
2022/03/22 17:56:38;;;;;;;13.70;6.50;;;14.70;49.90;;;;;;7243113;32;20112;-60
2022/03/22 18:00:40;;;;;;;12.45;6.90;;;14.30;53.50;;;;;;7245658;32;20968;-62
2022/03/22 18:04:45;;;;;;;15.57;6.43;;;14.00;54.40;;;;;;7245924;32;20764;-61
2022/03/22 18:08:46;;;;;;;16.87;6.72;;;13.80;55.30;;;;;;7242083;32;21820;-61
2022/03/22 18:12:48;;;;;;;13.38;6.68;;;13.50;56.90;;;;;;7240943;32;20131;-62
2022/03/22 18:16:53;;;;;;;15.73;7.12;;;13.10;58.70;;;;;;7239331;32;23027;-59
2022/03/22 18:20:56;;;;;;;13.40;6.32;;;12.80;58.90;;;;;;7244590;32;20272;-61
2022/03/22 18:24:58;;;;;;;12.32;6.15;;;12.50;62.00;;;;;;7230716;32;20136;-61
2022/03/22 18:28:59;;;;;;;11.32;7.03;;;12.20;64.70;;;;;;7244355;32;20589;-61
2022/03/22 18:33:02;;;;;;;12.15;6.90;;;11.90;70.30;;;;;;7240697;32;20120;-61
2022/03/22 18:37:04;;;;;;;14.65;6.93;;;11.60;72.40;;;;;;7243460;32;20112;-61
2022/03/22 18:41:05;;;;;;;15.45;6.78;;;11.30;78.50;;;;;;7240964;32;20218;-61
2022/03/22 18:45:10;;;;;;;16.30;7.07;;;11.00;85.70;;;;;;7246300;32;20186;-62
2022/03/22 18:49:12;;;;;;;13.43;6.55;;;10.70;93.30;;;;;;7239798;32;20212;-59
2022/03/22 18:53:14;;;;;;;13.95;7.03;;;10.60;95.20;;;;;;7239252;32;20278;-62
2022/03/22 18:57:16;;;;;;;13.52;6.57;;;10.40;99.90;;;;;;7242917;32;20753;-61
2022/03/22 19:01:18;;;;;;;12.95;6.60;;;10.10;99.90;;;;;;7242946;32;20444;-62
2022/03/22 19:05:20;;;;;;;13.60;6.95;;;10.00;99.90;;;;;;7232332;32;20135;-62
2022/03/22 19:09:22;;;;;;;13.88;6.72;;;9.70;99.90;;;;;;7243120;32;20325;-62
2022/03/22 19:13:30;;;;;;;15.93;7.35;;;9.50;99.90;;;;;;7242782;32;20117;-62
2022/03/22 19:21:52;;;;;;;12.23;6.50;;;9.00;99.90;;;;;;7246043;32;20689;-61
2022/03/22 19:25:54;;;;;;;16.77;6.72;;;8.90;99.90;;;;;;7244311;32;20218;-61
2022/03/22 19:29:56;;;;;;;12.73;7.68;;;8.60;99.90;;;;;;7244535;32;20661;-62
2022/03/22 19:33:57;;;;;;;15.60;7.95;;;8.40;99.90;;;;;;7244121;32;20127;-62
2022/03/22 19:38:03;;;;;;;10.80;7.03;;;8.30;99.90;;;;;;7244487;32;20203;-61
2022/03/22 19:42:05;;;;;;;12.10;6.75;;;8.10;99.90;;;;;;7238551;32;20211;-61
2022/03/22 19:46:09;;;;;;;15.98;7.62;;;8.00;99.90;;;;;;7243528;32;20783;-62
2022/03/22 19:50:11;;;;;;;12.70;6.90;;;7.80;99.90;;;;;;7242822;32;20123;-62
2022/03/22 19:54:13;;;;;;;16.48;7.03;;;7.70;99.90;;;;;;7242449;32;20142;-61
2022/03/22 19:58:15;;;;;;;19.02;8.18;;;7.60;99.90;;;;;;7241507;32;20188;-61
2022/03/22 20:02:18;;;;;;;15.65;7.22;;;7.40;99.90;;;;;;7244939;32;20140;-63
2022/03/22 20:06:21;;;;;;;13.27;6.70;;;7.30;99.90;;;;;;7242888;32;20131;-62
2022/03/22 20:10:25;;;;;;;17.05;8.07;;;7.20;99.90;;;;;;7235591;32;20756;-64
2022/03/22 20:14:31;;;;;;;13.98;7.45;;;7.10;99.90;;;;;;7243149;32;20191;-63
2022/03/22 20:18:33;;;;;;;12.45;6.72;;;7.10;99.90;;;;;;7239203;32;20634;-61
2022/03/22 20:22:35;;;;;;;14.02;6.87;;;7.00;99.90;;;;;;7241005;32;20562;-62
2022/03/22 20:26:42;;;;;;;;;;;6.90;99.90;;;;;;7243896;32;20179;-64
2022/03/22 20:30:44;;;;;;;10.57;6.95;;;6.70;99.90;;;;;;7243973;32;20007;-63
2022/03/22 20:34:47;;;;;;;14.35;6.70;;;6.60;99.90;;;;;;7242142;32;20361;-63
2022/03/22 20:38:49;;;;;;;12.82;6.78;;;6.50;99.90;;;;;;7242687;32;20136;-62
2022/03/22 20:42:51;;;;;;;14.63;7.62;;;6.40;99.90;;;;;;7243509;32;20109;-63
2022/03/22 20:46:52;;;;;;;13.52;7.55;;;6.30;99.90;;;;;;7238244;32;20135;-61
2022/03/22 20:50:54;;;;;;;13.13;7.72;;;6.30;99.90;;;;;;7238870;32;20228;-62
2022/03/22 20:54:56;;;;;;;16.05;6.65;;;6.10;99.90;;;;;;7230755;32;20139;-63
2022/03/22 20:59:04;;;;;;;16.17;7.95;;;6.00;99.90;;;;;;7239602;32;20535;-61
2022/03/22 21:03:05;;;;;;;13.52;8.07;;;6.00;99.90;;;;;;7247094;32;20214;-62
2022/03/22 21:07:09;;;;;;;16.77;7.20;;;6.00;99.90;;;;;;7249160;32;20170;-61
2022/03/22 21:11:10;;;;;;;14.68;7.75;;;5.90;99.90;;;;;;7244491;32;20840;-61
2022/03/22 21:15:12;;;;;;;13.70;8.13;;;5.80;99.90;;;;;;7235929;32;20135;-61
2022/03/22 21:19:14;;;;;;;16.60;8.23;;;5.80;99.90;;;;;;7246596;32;20112;-62
2022/03/22 21:23:16;;;;;;;18.83;9.82;;;5.70;99.90;;;;;;7244260;32;20132;-61
2022/03/22 21:27:18;;;;;;;14.35;8.23;;;5.70;99.90;;;;;;7243542;32;20152;-60
2022/03/22 21:31:19;;;;;;;18.00;8.70;;;5.60;99.90;;;;;;7247553;32;20210;-61
2022/03/22 21:35:21;;;;;;;10.82;7.90;;;5.50;99.90;;;;;;7247843;32;20137;-61
2022/03/22 21:39:23;;;;;;;15.52;8.73;;;5.50;99.90;;;;;;7246309;32;20123;-61
2022/03/22 21:43:26;;;;;;;18.08;9.65;;;5.40;99.90;;;;;;7245437;32;20998;-60